createdAt,value
2023-03-22T00:00:17.529Z,9.67
2023-03-22T00:02:49.460Z,9.59
2023-03-22T00:05:21.096Z,9.54
2023-03-22T00:07:54.259Z,9.51
2023-03-22T00:10:25.869Z,9.46
2023-03-22T00:12:57.380Z,9.43
2023-03-22T00:15:31.929Z,9.43
2023-03-22T00:18:06.220Z,9.38
2023-03-22T00:20:39.416Z,9.39
2023-03-22T00:23:11.131Z,9.42
2023-03-22T00:25:42.622Z,9.44
2023-03-22T00:28:14.458Z,9.44
2023-03-22T00:30:45.959Z,9.39
2023-03-22T00:33:17.799Z,9.42
2023-03-22T00:35:49.349Z,9.42
2023-03-22T00:38:27.310Z,9.45
2023-03-22T00:41:04.134Z,9.49
2023-03-22T00:43:36.260Z,9.44
2023-03-22T00:46:07.799Z,9.44
2023-03-22T00:48:39.385Z,8.72
2023-03-22T00:51:10.902Z,9.41
2023-03-22T00:53:43.635Z,9.37
2023-03-22T00:56:15.587Z,9.33
2023-03-22T00:58:47.564Z,9.33
2023-03-22T01:01:19.119Z,9.29
2023-03-22T01:03:51.132Z,9.31
2023-03-22T01:06:22.683Z,9.32
2023-03-22T01:08:55.124Z,9.33
2023-03-22T01:11:26.749Z,9.29
2023-03-22T01:13:59.584Z,9.31
2023-03-22T01:16:31.144Z,9.31
2023-03-22T01:19:03.807Z,9.32
2023-03-22T01:21:35.578Z,9.32
2023-03-22T01:24:07.301Z,9.29
2023-03-22T01:26:38.997Z,9.29
2023-03-22T01:29:10.956Z,9.24
2023-03-22T01:31:42.445Z,9.24
2023-03-22T01:34:14.408Z,9.22
2023-03-22T01:36:45.914Z,9.23
2023-03-22T01:39:17.822Z,9.21
2023-03-22T01:41:49.321Z,9.23
2023-03-22T01:44:21.343Z,9.24
2023-03-22T01:46:52.866Z,9.28
2023-03-22T01:49:24.773Z,9.29
2023-03-22T01:51:56.360Z,9.27
2023-03-22T01:54:27.981Z,9.24
2023-03-22T01:56:59.511Z,9.24
2023-03-22T01:59:31.175Z,9.19
2023-03-22T02:02:03.508Z,9.18
2023-03-22T02:04:35.050Z,9.11
2023-03-22T02:07:10.206Z,9.06
2023-03-22T02:09:42.428Z,9.01
2023-03-22T02:12:14.221Z,8.94
2023-03-22T02:14:45.931Z,8.94
2023-03-22T02:17:17.733Z,8.90
2023-03-22T02:19:49.244Z,8.87
2023-03-22T02:22:22.127Z,8.84
2023-03-22T02:24:55.475Z,8.86
2023-03-22T02:27:27.383Z,8.81
2023-03-22T02:29:58.875Z,8.77
2023-03-22T02:32:30.884Z,8.78
2023-03-22T02:35:02.370Z,8.72
2023-03-22T02:37:34.244Z,8.71
2023-03-22T02:40:05.757Z,8.66
2023-03-22T02:42:37.603Z,8.65
2023-03-22T02:45:09.105Z,8.64
2023-03-22T02:47:41.196Z,8.61
2023-03-22T02:50:12.799Z,8.62
2023-03-22T02:52:44.314Z,8.59
2023-03-22T02:55:16.500Z,8.60
2023-03-22T02:57:48.308Z,8.54
2023-03-22T03:00:19.813Z,8.54
2023-03-22T03:02:51.767Z,8.52
2023-03-22T03:05:23.267Z,8.46
2023-03-22T03:07:54.773Z,8.39
2023-03-22T03:10:26.270Z,8.38
2023-03-22T03:12:57.771Z,8.34
2023-03-22T03:15:29.259Z,8.32
2023-03-22T03:18:00.852Z,8.23
2023-03-22T03:20:34.335Z,8.20
2023-03-22T03:23:06.374Z,8.18
2023-03-22T03:25:43.152Z,8.14
2023-03-22T03:28:15.028Z,8.11
2023-03-22T03:30:46.781Z,8.06
2023-03-22T03:33:18.763Z,8.11
2023-03-22T03:35:50.345Z,8.10
2023-03-22T03:38:21.871Z,8.12
2023-03-22T03:40:53.601Z,8.13
2023-03-22T03:43:28.563Z,8.12
2023-03-22T03:46:00.367Z,8.14
2023-03-22T03:48:32.052Z,8.13
2023-03-22T03:51:03.581Z,8.09
2023-03-22T03:53:35.686Z,8.02
2023-03-22T03:56:07.184Z,8.01
2023-03-22T03:58:38.694Z,8.00
2023-03-22T04:01:10.268Z,8.01
2023-03-22T04:03:42.138Z,7.97
2023-03-22T04:06:13.671Z,7.97
2023-03-22T04:08:45.818Z,7.97
2023-03-22T04:11:17.325Z,7.97
2023-03-22T04:13:49.139Z,8.01
2023-03-22T04:16:21.005Z,8.06
2023-03-22T04:18:53.341Z,8.07
2023-03-22T04:21:25.238Z,8.10
2023-03-22T04:23:56.823Z,8.13
2023-03-22T04:26:28.687Z,8.10
2023-03-22T04:29:02.470Z,8.12
2023-03-22T04:31:35.862Z,8.07
2023-03-22T04:34:07.394Z,8.02
2023-03-22T04:36:42.412Z,8.05
2023-03-22T04:39:14.080Z,8.08
2023-03-22T04:41:45.987Z,8.11
2023-03-22T04:44:17.592Z,8.05
2023-03-22T04:46:49.494Z,8.08
2023-03-22T04:49:20.987Z,8.10
2023-03-22T04:51:52.854Z,8.08
2023-03-22T04:54:24.377Z,8.11
2023-03-22T04:56:55.910Z,8.05
2023-03-22T04:59:27.460Z,8.10
2023-03-22T05:01:59.047Z,8.09
2023-03-22T05:04:31.442Z,8.11
2023-03-22T05:07:03.348Z,7.28
2023-03-22T05:09:34.867Z,8.14
2023-03-22T05:12:06.999Z,8.24
2023-03-22T05:14:38.626Z,8.18
2023-03-22T05:17:11.424Z,8.12
2023-03-22T05:19:42.931Z,8.14
2023-03-22T05:22:14.874Z,8.10
2023-03-22T05:24:46.705Z,8.06
2023-03-22T05:27:31.281Z,8.00
2023-03-22T05:30:03.117Z,8.02
2023-03-22T05:32:37.832Z,8.02
2023-03-22T05:35:09.553Z,8.00
2023-03-22T05:37:41.703Z,8.04
2023-03-22T05:40:13.450Z,8.06
2023-03-22T05:42:45.336Z,8.03
2023-03-22T05:45:16.900Z,8.04
2023-03-22T05:47:48.742Z,8.07
2023-03-22T05:50:20.308Z,8.08
2023-03-22T05:52:52.485Z,8.14
2023-03-22T05:55:24.127Z,8.14
2023-03-22T05:57:56.743Z,8.14
2023-03-22T06:00:32.039Z,8.18
2023-03-22T06:03:05.484Z,8.21
2023-03-22T06:05:37.385Z,8.25
2023-03-22T06:08:09.329Z,8.33
2023-03-22T06:10:41.072Z,8.38
2023-03-22T06:13:12.984Z,8.41
2023-03-22T06:15:44.528Z,8.38
2023-03-22T06:18:16.653Z,8.44
2023-03-22T06:20:48.215Z,8.49
2023-03-22T06:23:19.753Z,8.55
2023-03-22T06:25:51.276Z,8.58
2023-03-22T06:28:23.227Z,8.59
2023-03-22T06:30:54.793Z,8.62
2023-03-22T06:33:26.513Z,8.70
2023-03-22T06:35:59.656Z,8.83
2023-03-22T06:38:31.517Z,8.90
2023-03-22T06:41:03.077Z,8.88
2023-03-22T06:43:34.604Z,8.95
2023-03-22T06:46:06.238Z,9.06
2023-03-22T06:48:37.800Z,9.03
2023-03-22T06:51:09.372Z,9.11
2023-03-22T06:53:41.294Z,9.11
2023-03-22T06:56:13.264Z,9.22
2023-03-22T06:58:44.825Z,9.19
2023-03-22T07:01:16.383Z,9.36
2023-03-22T07:03:48.131Z,9.48
2023-03-22T07:06:19.786Z,9.59
2023-03-22T07:08:52.163Z,9.54
2023-03-22T07:11:25.833Z,9.57
2023-03-22T07:13:57.370Z,9.62
2023-03-22T07:16:28.948Z,9.76
2023-03-22T07:19:00.853Z,9.84
2023-03-22T07:21:32.532Z,9.94
2023-03-22T07:24:04.380Z,10.02
2023-03-22T07:26:35.914Z,10.19
2023-03-22T07:29:07.932Z,10.33
2023-03-22T07:31:40.054Z,10.17
2023-03-22T07:34:11.965Z,10.21
2023-03-22T07:36:43.473Z,10.44
2023-03-22T07:39:15.609Z,10.30
2023-03-22T07:41:47.159Z,10.70
2023-03-22T07:44:18.980Z,10.52
2023-03-22T07:46:52.259Z,10.76
2023-03-22T07:49:24.266Z,11.18
2023-03-22T07:51:55.870Z,10.92
2023-03-22T07:54:33.841Z,11.21
2023-03-22T07:57:06.960Z,11.37
2023-03-22T07:59:40.098Z,11.61
2023-03-22T08:02:11.875Z,11.84
2023-03-22T08:04:43.412Z,12.25
2023-03-22T08:07:15.940Z,12.33
2023-03-22T08:09:47.463Z,12.15
2023-03-22T08:12:19.269Z,12.08
2023-03-22T08:14:52.953Z,12.58
2023-03-22T08:17:26.373Z,12.58
2023-03-22T08:19:57.945Z,12.91
2023-03-22T08:22:30.433Z,12.88
2023-03-22T08:25:01.950Z,12.99
2023-03-22T08:27:33.752Z,13.16
2023-03-22T08:30:05.753Z,13.06
2023-03-22T08:32:37.708Z,12.85
2023-03-22T08:35:09.312Z,13.02
2023-03-22T08:37:41.708Z,12.43
2023-03-22T08:40:13.444Z,13.52
2023-03-22T08:42:45.359Z,13.15
2023-03-22T08:45:16.917Z,12.82
2023-03-22T08:47:48.728Z,13.48
2023-03-22T08:50:20.242Z,13.99
2023-03-22T08:52:53.670Z,13.70
2023-03-22T08:55:25.252Z,13.24
2023-03-22T08:57:58.622Z,13.53
2023-03-22T09:00:45.785Z,13.66
2023-03-22T09:03:19.592Z,13.97
2023-03-22T09:05:51.109Z,13.58
2023-03-22T09:08:23.007Z,14.69
2023-03-22T09:10:54.516Z,15.94
2023-03-22T09:13:26.413Z,15.02
2023-03-22T09:15:58.018Z,15.39
2023-03-22T09:18:29.896Z,15.68
2023-03-22T09:21:01.731Z,15.82
2023-03-22T09:23:34.444Z,16.01
2023-03-22T09:26:06.502Z,16.34
2023-03-22T09:28:38.218Z,15.86
2023-03-22T09:31:09.869Z,16.84
2023-03-22T09:33:41.944Z,16.23
2023-03-22T09:36:13.504Z,17.09
2023-03-22T09:38:45.645Z,16.77
2023-03-22T09:41:17.218Z,16.99
2023-03-22T09:43:49.204Z,16.47
2023-03-22T09:46:20.741Z,16.38
2023-03-22T09:48:52.289Z,15.89
2023-03-22T09:51:23.885Z,16.68
2023-03-22T09:53:55.442Z,15.97
2023-03-22T09:56:27.152Z,16.20
2023-03-22T09:58:58.703Z,16.58
2023-03-22T10:01:31.226Z,17.24
2023-03-22T10:04:03.271Z,17.75
2023-03-22T10:06:34.842Z,17.96
2023-03-22T10:09:07.132Z,17.82
2023-03-22T10:11:38.679Z,17.79
2023-03-22T10:14:10.545Z,18.00
2023-03-22T10:16:42.030Z,17.75
2023-03-22T10:19:13.546Z,18.55
2023-03-22T10:21:45.101Z,18.62
2023-03-22T10:24:17.125Z,18.50
2023-03-22T10:26:48.668Z,17.53
2023-03-22T10:29:20.772Z,17.16
2023-03-22T10:31:52.557Z,17.11
2023-03-22T10:34:24.150Z,17.74
2023-03-22T10:36:55.722Z,17.29
2023-03-22T10:39:27.652Z,16.70
2023-03-22T10:41:59.158Z,17.20
2023-03-22T10:44:31.102Z,17.66
2023-03-22T10:47:07.282Z,17.42
2023-03-22T10:49:39.236Z,17.78
2023-03-22T10:52:10.966Z,17.70
2023-03-22T10:54:42.596Z,16.93
2023-03-22T10:57:14.118Z,16.95
2023-03-22T10:59:47.564Z,16.75
2023-03-22T11:02:19.243Z,17.26
2023-03-22T11:04:51.252Z,17.54
2023-03-22T11:07:22.820Z,17.23
2023-03-22T11:09:54.355Z,16.93
2023-03-22T11:12:25.844Z,16.44
2023-03-22T11:14:57.589Z,16.78
2023-03-22T11:17:29.119Z,17.01
2023-03-22T11:20:01.803Z,17.59
2023-03-22T11:22:33.445Z,17.31
2023-03-22T11:25:05.340Z,17.23
2023-03-22T11:27:37.084Z,16.55
2023-03-22T11:30:08.964Z,16.81
2023-03-22T11:32:40.625Z,16.71
2023-03-22T11:35:12.347Z,17.08
2023-03-22T11:37:43.868Z,16.96
2023-03-22T11:40:16.173Z,16.68
2023-03-22T11:42:47.779Z,17.34
2023-03-22T11:45:19.662Z,17.38
2023-03-22T11:47:51.262Z,17.27
2023-03-22T11:50:23.215Z,17.47
2023-03-22T11:52:54.861Z,17.03
2023-03-22T11:55:26.732Z,17.76
2023-03-22T11:57:58.247Z,18.34
2023-03-22T12:00:30.134Z,18.56
2023-03-22T12:03:01.966Z,18.00
2023-03-22T12:05:34.219Z,18.29
2023-03-22T12:08:05.733Z,18.17
2023-03-22T12:10:37.593Z,18.53
2023-03-22T12:13:09.199Z,19.29
2023-03-22T12:15:41.038Z,17.94
2023-03-22T12:18:12.880Z,17.50
2023-03-22T12:20:44.778Z,17.22
2023-03-22T12:23:16.326Z,17.84
2023-03-22T12:25:48.048Z,17.57
2023-03-22T12:28:19.584Z,17.25
2023-03-22T12:30:51.594Z,17.39
2023-03-22T12:33:23.235Z,17.58
2023-03-22T12:35:54.791Z,16.94
2023-03-22T12:38:27.924Z,16.90
2023-03-22T12:40:59.464Z,17.55
2023-03-22T12:43:31.024Z,17.86
2023-03-22T12:46:03.288Z,17.93
2023-03-22T12:48:34.973Z,17.91
2023-03-22T12:51:06.910Z,18.69
2023-03-22T12:53:42.403Z,18.58
2023-03-22T12:56:14.296Z,18.34
2023-03-22T12:58:45.861Z,18.12
2023-03-22T13:01:17.670Z,18.10
2023-03-22T13:03:51.981Z,18.54
2023-03-22T13:06:24.062Z,18.16
2023-03-22T13:08:55.794Z,18.02
2023-03-22T13:11:27.635Z,17.96
2023-03-22T13:13:59.157Z,18.83
2023-03-22T13:16:31.270Z,18.56
2023-03-22T13:19:03.129Z,18.36
2023-03-22T13:21:38.604Z,17.60
2023-03-22T13:24:10.471Z,17.78
2023-03-22T13:26:43.937Z,17.85
2023-03-22T13:29:16.244Z,17.63
2023-03-22T13:31:48.063Z,17.86
2023-03-22T13:34:19.749Z,18.19
2023-03-22T13:36:51.595Z,18.77
2023-03-22T13:39:25.064Z,18.30
2023-03-22T13:41:56.594Z,18.23
2023-03-22T13:44:28.089Z,18.84
2023-03-22T13:46:59.669Z,19.05
2023-03-22T13:49:31.289Z,17.92
2023-03-22T13:52:03.202Z,18.05
2023-03-22T13:54:34.693Z,18.37
2023-03-22T13:57:06.577Z,18.13
2023-03-22T13:59:38.085Z,18.01
2023-03-22T14:02:11.231Z,17.96
2023-03-22T14:04:42.867Z,17.82
2023-03-22T14:07:15.198Z,18.41
2023-03-22T14:09:46.714Z,18.06
2023-03-22T14:12:18.567Z,19.21
2023-03-22T14:14:50.123Z,19.70
2023-03-22T14:17:21.973Z,19.31
2023-03-22T14:19:53.474Z,19.22
